createdAt,value
2018-02-17T00:00:13.446Z,68.60
2018-02-17T00:02:41.789Z,69.00
2018-02-17T00:05:10.549Z,69.52
2018-02-17T00:07:38.898Z,69.76
2018-02-17T00:10:08.404Z,69.37
2018-02-17T00:12:36.856Z,69.27
2018-02-17T00:15:05.232Z,69.07
2018-02-17T00:17:33.690Z,69.17
2018-02-17T00:20:02.209Z,68.83
2018-02-17T00:22:30.601Z,70.01
2018-02-17T00:24:59.071Z,69.78
2018-02-17T00:27:27.562Z,70.07
2018-02-17T00:29:56.759Z,70.52
2018-02-17T00:32:26.163Z,70.47
2018-02-17T00:34:54.543Z,69.90
2018-02-17T00:37:23.116Z,69.63
2018-02-17T00:39:51.573Z,69.64
2018-02-17T00:42:20.094Z,69.72
2018-02-17T00:44:48.448Z,69.65
2018-02-17T00:47:16.782Z,69.60
2018-02-17T00:49:45.943Z,69.54
2018-02-17T00:52:14.344Z,69.92
2018-02-17T00:54:43.264Z,70.12
2018-02-17T00:57:11.594Z,69.76
2018-02-17T00:59:40.040Z,70.26
2018-02-17T01:02:08.397Z,70.09
2018-02-17T01:04:36.733Z,70.10
2018-02-17T01:07:05.850Z,70.30
2018-02-17T01:09:34.308Z,69.81
2018-02-17T01:12:03.413Z,69.78
2018-02-17T01:14:31.828Z,69.88
2018-02-17T01:17:00.504Z,70.64
2018-02-17T01:19:29.040Z,70.77
2018-02-17T01:21:57.472Z,71.39
2018-02-17T01:24:25.852Z,71.48
2018-02-17T01:26:54.221Z,71.33
2018-02-17T01:29:22.611Z,70.97
2018-02-17T01:31:51.034Z,71.25
2018-02-17T01:34:19.370Z,70.58
2018-02-17T01:36:47.755Z,71.22
2018-02-17T01:39:16.282Z,70.92
2018-02-17T01:41:44.658Z,71.05
2018-02-17T01:44:12.967Z,70.70
2018-02-17T01:46:41.340Z,71.28
2018-02-17T01:49:09.667Z,71.86
2018-02-17T01:51:38.753Z,71.60
2018-02-17T01:54:07.193Z,71.24
2018-02-17T01:56:35.496Z,70.60
2018-02-17T01:59:03.871Z,70.62
2018-02-17T02:01:32.561Z,70.75
2018-02-17T02:04:00.876Z,70.83
2018-02-17T02:06:29.943Z,71.29
2018-02-17T02:08:58.326Z,71.62
2018-02-17T02:11:26.704Z,71.72
2018-02-17T02:13:55.069Z,71.77
2018-02-17T02:16:23.462Z,71.79
2018-02-17T02:18:51.828Z,72.38
2018-02-17T02:21:20.929Z,72.13
2018-02-17T02:23:49.607Z,71.75
2018-02-17T02:26:18.070Z,71.65
2018-02-17T02:28:46.489Z,71.64
2018-02-17T02:31:14.950Z,71.67
2018-02-17T02:33:43.370Z,70.98
2018-02-17T02:36:12.554Z,70.63
2018-02-17T02:38:40.928Z,70.69
2018-02-17T02:41:10.074Z,70.73
2018-02-17T02:43:38.414Z,71.16
2018-02-17T02:46:07.037Z,71.32
2018-02-17T02:48:35.393Z,71.12
2018-02-17T02:51:04.562Z,71.35
2018-02-17T02:53:32.947Z,71.63
2018-02-17T02:56:01.331Z,71.65
2018-02-17T02:58:29.677Z,72.19
2018-02-17T03:00:58.977Z,72.45
2018-02-17T03:03:27.383Z,72.03
2018-02-17T03:05:55.773Z,72.00
2018-02-17T03:08:24.388Z,71.82
2018-02-17T03:10:53.522Z,71.39
2018-02-17T03:13:21.855Z,71.95
2018-02-17T03:15:51.162Z,71.89
2018-02-17T03:18:19.488Z,72.13
2018-02-17T03:20:47.890Z,72.23
2018-02-17T03:23:16.249Z,71.91
2018-02-17T03:25:44.615Z,72.65
2018-02-17T03:28:12.942Z,72.64
2018-02-17T03:30:42.501Z,72.23
2018-02-17T03:33:10.926Z,73.00
2018-02-17T03:35:39.298Z,74.05
2018-02-17T03:38:07.772Z,74.56
2018-02-17T03:40:36.184Z,74.51
2018-02-17T03:43:04.500Z,73.68
2018-02-17T03:45:32.862Z,73.61
2018-02-17T03:48:01.242Z,73.35
2018-02-17T03:50:29.563Z,72.72
2018-02-17T03:52:58.379Z,73.08
2018-02-17T03:55:27.475Z,72.21
2018-02-17T03:57:56.609Z,71.68
2018-02-17T04:00:24.925Z,71.24
2018-02-17T04:02:53.263Z,70.85
2018-02-17T04:05:21.583Z,71.54
2018-02-17T04:07:49.942Z,71.20
2018-02-17T04:10:18.268Z,71.65
2018-02-17T04:12:47.337Z,71.96
2018-02-17T04:15:16.125Z,72.08
2018-02-17T04:17:44.465Z,72.19
2018-02-17T04:20:12.826Z,72.34
2018-02-17T04:22:41.236Z,72.17
2018-02-17T04:25:09.503Z,72.02
2018-02-17T04:27:37.807Z,72.26
2018-02-17T04:30:06.181Z,72.64
2018-02-17T04:32:34.533Z,72.79
2018-02-17T04:35:02.866Z,72.72
2018-02-17T04:37:32.068Z,72.01
2018-02-17T04:43:26.137Z,72.18
2018-02-17T04:49:22.679Z,72.24
2018-02-17T04:55:01.468Z,73.05
2018-02-17T04:57:31.224Z,72.77
2018-02-17T05:00:04.515Z,72.62
2018-02-17T05:02:39.209Z,73.04
2018-02-17T05:05:09.181Z,73.30
2018-02-17T05:07:40.537Z,73.45
2018-02-17T05:10:08.896Z,72.84
2018-02-17T05:12:37.628Z,73.23
2018-02-17T05:15:11.596Z,72.94
2018-02-17T05:17:42.632Z,73.54
2018-02-17T05:20:15.725Z,73.60
2018-02-17T05:22:49.532Z,73.83
2018-02-17T05:25:28.636Z,73.67
2018-02-17T05:27:57.237Z,73.44
2018-02-17T05:33:37.205Z,73.07
2018-02-17T05:36:10.945Z,72.68
2018-02-17T05:38:39.731Z,72.82
2018-02-17T05:41:08.052Z,73.21
2018-02-17T05:43:37.130Z,72.56
2018-02-17T05:46:07.557Z,72.22
2018-02-17T05:48:38.556Z,72.18
2018-02-17T05:51:06.865Z,71.75
2018-02-17T05:53:35.479Z,71.65
2018-02-17T05:56:03.804Z,71.92
2018-02-17T05:58:32.106Z,72.29
2018-02-17T06:01:00.554Z,71.70
2018-02-17T06:03:28.881Z,71.70
2018-02-17T06:05:57.969Z,71.24
2018-02-17T06:08:27.459Z,71.31
2018-02-17T06:10:55.784Z,71.73
2018-02-17T06:13:24.100Z,71.47
2018-02-17T06:15:52.661Z,71.43
2018-02-17T06:18:21.098Z,71.57
2018-02-17T06:20:49.432Z,72.17
2018-02-17T06:23:17.753Z,72.85
2018-02-17T06:25:46.808Z,72.70
2018-02-17T06:28:15.118Z,72.96
2018-02-17T06:30:44.208Z,72.73
2018-02-17T06:33:12.570Z,72.62
2018-02-17T06:35:40.872Z,73.22
2018-02-17T06:38:09.241Z,73.60
2018-02-17T06:40:37.576Z,73.90
2018-02-17T06:43:05.937Z,73.83
2018-02-17T06:45:34.278Z,73.72
2018-02-17T06:48:02.580Z,73.30
2018-02-17T06:50:31.638Z,73.00
2018-02-17T06:53:00.282Z,73.29
2018-02-17T06:55:28.586Z,73.16
2018-02-17T06:57:57.021Z,73.42
2018-02-17T07:00:26.153Z,73.28
2018-02-17T07:02:54.489Z,73.30
2018-02-17T07:05:23.609Z,73.47
2018-02-17T07:07:51.961Z,74.18
2018-02-17T07:10:20.295Z,74.39
2018-02-17T07:12:48.614Z,74.09
2018-02-17T07:15:18.085Z,75.71
2018-02-17T07:17:46.396Z,75.40
2018-02-17T07:20:15.520Z,74.73
2018-02-17T07:22:43.908Z,74.36
2018-02-17T07:25:12.239Z,74.79
2018-02-17T07:27:40.607Z,74.03
2018-02-17T07:30:08.995Z,73.92
2018-02-17T07:32:37.477Z,73.53
2018-02-17T07:35:05.880Z,72.23
2018-02-17T07:37:34.850Z,71.54
2018-02-17T07:40:03.228Z,71.29
2018-02-17T07:42:31.735Z,71.71
2018-02-17T07:45:00.918Z,71.75
2018-02-17T07:47:29.293Z,71.39
2018-02-17T07:49:57.647Z,71.46
2018-02-17T07:52:26.036Z,71.82
2018-02-17T07:54:54.432Z,71.18
2018-02-17T07:57:23.736Z,70.81
2018-02-17T07:59:53.425Z,70.20
2018-02-17T08:02:21.756Z,69.87
2018-02-17T08:04:50.137Z,69.79
2018-02-17T08:07:18.513Z,69.11
2018-02-17T08:09:46.846Z,68.32
2018-02-17T08:12:15.147Z,68.23
2018-02-17T08:14:43.511Z,67.94
2018-02-17T08:17:11.895Z,67.88
2018-02-17T08:19:40.237Z,67.54
2018-02-17T08:22:08.881Z,67.18
2018-02-17T08:24:37.225Z,66.79
2018-02-17T08:27:06.334Z,66.76
2018-02-17T08:29:34.774Z,66.72
2018-02-17T08:32:03.248Z,66.78
2018-02-17T08:34:31.581Z,66.95
2018-02-17T08:36:59.972Z,66.98
2018-02-17T08:39:28.319Z,66.56
2018-02-17T08:41:56.651Z,66.60
2018-02-17T08:44:25.398Z,66.21
2018-02-17T08:46:53.730Z,65.24
2018-02-17T08:49:22.064Z,64.57
2018-02-17T08:51:51.219Z,63.19
2018-02-17T08:54:19.570Z,62.49
2018-02-17T08:56:47.895Z,60.71
2018-02-17T08:59:16.482Z,58.67
2018-02-17T09:01:44.829Z,57.37
2018-02-17T09:04:13.184Z,56.32
2018-02-17T09:06:41.955Z,55.45
2018-02-17T09:09:10.369Z,56.02
2018-02-17T09:11:38.938Z,55.35
2018-02-17T09:14:07.268Z,55.74
2018-02-17T09:16:35.628Z,55.35
2018-02-17T09:19:03.991Z,55.21
2018-02-17T09:21:32.385Z,55.44
2018-02-17T09:24:00.734Z,56.21
2018-02-17T09:26:29.125Z,56.14
2018-02-17T09:28:57.811Z,57.46
2018-02-17T09:31:26.150Z,57.61
2018-02-17T09:33:55.285Z,57.87
2018-02-17T09:36:23.617Z,59.41
2018-02-17T09:38:52.035Z,59.04
2018-02-17T09:41:20.364Z,58.87
2018-02-17T09:43:48.737Z,57.34
2018-02-17T09:46:24.327Z,54.45
2018-02-17T09:48:56.716Z,51.61
2018-02-17T09:51:25.193Z,46.09
2018-02-17T09:53:54.435Z,43.02
2018-02-17T09:56:22.866Z,43.92
2018-02-17T09:58:51.205Z,44.33
2018-02-17T10:01:19.609Z,44.23
2018-02-17T10:03:48.056Z,46.50
2018-02-17T10:06:16.393Z,46.77
2018-02-17T10:08:44.726Z,46.97
2018-02-17T10:11:13.562Z,46.89
2018-02-17T10:13:41.960Z,45.90
2018-02-17T10:16:10.301Z,46.12
2018-02-17T10:18:39.479Z,47.26
2018-02-17T10:21:08.049Z,48.65
2018-02-17T10:23:36.409Z,47.98
2018-02-17T10:26:04.837Z,49.92
2018-02-17T10:28:33.960Z,50.69
2018-02-17T10:31:02.360Z,54.12
2018-02-17T10:33:30.846Z,57.12
2018-02-17T10:35:59.169Z,58.56
2018-02-17T10:38:27.528Z,59.25
2018-02-17T10:40:55.897Z,58.89
2018-02-17T10:43:24.237Z,56.21
2018-02-17T10:45:52.542Z,54.91
2018-02-17T10:48:20.897Z,54.87
2018-02-17T10:50:49.259Z,52.26
2018-02-17T10:53:17.688Z,51.19
2018-02-17T10:55:46.198Z,48.78
2018-02-17T10:58:14.545Z,46.70
2018-02-17T11:00:42.907Z,45.33
2018-02-17T11:03:12.027Z,42.70
2018-02-17T11:05:40.380Z,41.22
2018-02-17T11:08:08.733Z,40.53
2018-02-17T11:10:37.873Z,41.37
2018-02-17T11:13:06.226Z,40.80
2018-02-17T11:15:34.567Z,39.51
2018-02-17T11:18:03.122Z,37.64
2018-02-17T11:20:32.263Z,35.99
2018-02-17T11:23:01.399Z,33.13
2018-02-17T11:25:29.836Z,29.39
2018-02-17T11:27:58.960Z,25.68
2018-02-17T11:30:27.301Z,23.68
2018-02-17T11:32:55.669Z,22.79
2018-02-17T11:35:24.018Z,23.33
2018-02-17T11:37:52.370Z,23.10
2018-02-17T11:40:21.693Z,21.74
2018-02-17T11:42:50.049Z,20.55
2018-02-17T11:45:18.391Z,19.33
2018-02-17T11:47:46.820Z,23.22
2018-02-17T11:50:15.226Z,25.53
2018-02-17T11:52:43.582Z,27.49
2018-02-17T11:55:12.002Z,29.57
2018-02-17T11:57:40.358Z,31.51
2018-02-17T12:00:08.669Z,35.74
2018-02-17T12:02:37.276Z,37.19
2018-02-17T12:05:06.378Z,39.55
2018-02-17T12:07:34.718Z,37.08
2018-02-17T12:10:03.162Z,36.94
2018-02-17T12:12:31.628Z,35.67
2018-02-17T12:15:00.039Z,31.00
2018-02-17T12:17:50.126Z,27.46
2018-02-17T12:20:18.595Z,25.99
2018-02-17T12:22:47.027Z,24.63
2018-02-17T12:25:15.455Z,21.75
2018-02-17T12:27:43.903Z,21.22
2018-02-17T12:30:13.130Z,22.84
2018-02-17T12:32:41.565Z,25.40
2018-02-17T12:35:09.991Z,29.22
2018-02-17T12:37:38.404Z,32.32
2018-02-17T12:40:07.501Z,34.10
2018-02-17T12:42:35.916Z,36.34
2018-02-17T12:45:04.326Z,37.49
2018-02-17T12:47:32.683Z,37.44
2018-02-17T12:50:01.011Z,37.08
2018-02-17T12:52:29.369Z,36.28
2018-02-17T12:54:57.734Z,36.53
2018-02-17T12:57:26.071Z,36.86
2018-02-17T12:59:54.744Z,37.66
2018-02-17T13:02:23.899Z,38.30
2018-02-17T13:04:52.994Z,38.74
2018-02-17T13:07:21.358Z,39.00
2018-02-17T13:09:49.678Z,38.52
2018-02-17T13:12:18.106Z,38.43
2018-02-17T13:14:46.491Z,39.24
2018-02-17T13:17:15.656Z,39.15
2018-02-17T13:19:44.086Z,39.48
2018-02-17T13:22:12.901Z,39.97
2018-02-17T13:24:41.276Z,40.45
2018-02-17T13:27:09.694Z,40.07
2018-02-17T13:29:38.137Z,40.01
2018-02-17T13:32:06.497Z,40.02
2018-02-17T13:34:34.850Z,39.75
2018-02-17T13:37:03.251Z,40.16
2018-02-17T13:39:32.370Z,40.57
2018-02-17T13:42:00.779Z,40.86
2018-02-17T13:44:29.629Z,41.54
2018-02-17T13:46:58.004Z,42.44
2018-02-17T13:49:26.359Z,42.02
2018-02-17T13:51:55.477Z,42.45
2018-02-17T13:54:23.814Z,42.64
2018-02-17T13:56:52.169Z,42.54
2018-02-17T13:59:20.593Z,43.12
2018-02-17T14:01:48.999Z,43.14
2018-02-17T14:04:17.380Z,42.61
2018-02-17T14:06:46.369Z,42.38
2018-02-17T14:09:14.733Z,43.00
2018-02-17T14:11:43.106Z,43.97
2018-02-17T14:14:11.517Z,43.21
2018-02-17T14:16:39.886Z,43.11
2018-02-17T14:19:08.281Z,43.27
2018-02-17T14:21:36.631Z,43.70
2018-02-17T14:24:04.979Z,43.20
2018-02-17T14:26:33.357Z,42.79
2018-02-17T14:29:02.326Z,43.30
2018-02-17T14:31:30.785Z,43.14
2018-02-17T14:34:01.593Z,43.80
2018-02-17T14:36:30.141Z,43.92
2018-02-17T14:38:58.509Z,44.00
2018-02-17T14:41:28.364Z,44.58
2018-02-17T14:43:56.742Z,43.75
2018-02-17T14:46:25.092Z,43.98
2018-02-17T14:48:53.537Z,44.04
2018-02-17T14:51:21.995Z,44.00
2018-02-17T14:53:51.156Z,44.13
2018-02-17T14:56:19.526Z,44.06
2018-02-17T14:58:47.927Z,44.40
2018-02-17T15:01:16.402Z,43.75
2018-02-17T15:03:44.804Z,43.85
2018-02-17T15:06:13.242Z,44.18
2018-02-17T15:08:41.569Z,44.45
2018-02-17T15:11:10.685Z,44.39
2018-02-17T15:13:39.348Z,44.55
2018-02-17T15:16:07.748Z,45.05
2018-02-17T15:18:36.133Z,45.55
2018-02-17T15:21:04.578Z,44.81
2018-02-17T15:23:32.922Z,45.02
2018-02-17T15:26:01.336Z,45.81
2018-02-17T15:28:29.692Z,45.88
2018-02-17T15:30:58.054Z,45.38
2018-02-17T15:33:26.451Z,46.01
2018-02-17T15:35:54.955Z,46.38
2018-02-17T15:38:23.317Z,45.85
2018-02-17T15:40:51.669Z,45.60
2018-02-17T15:43:20.214Z,45.51
2018-02-17T15:45:49.326Z,46.34
2018-02-17T15:48:17.703Z,45.98
2018-02-17T15:50:46.572Z,45.98
2018-02-17T15:53:15.723Z,46.65
2018-02-17T15:55:44.070Z,46.93
2018-02-17T15:58:12.788Z,47.13
2018-02-17T16:00:41.116Z,46.89
2018-02-17T16:03:09.452Z,46.82
2018-02-17T16:05:37.849Z,46.76
2018-02-17T16:08:06.304Z,46.56
2018-02-17T16:10:34.682Z,46.31
2018-02-17T16:13:03.043Z,46.36
2018-02-17T16:15:31.360Z,46.31
2018-02-17T16:17:59.660Z,47.00
2018-02-17T16:20:28.694Z,46.81
2018-02-17T16:22:57.140Z,46.77
2018-02-17T16:25:25.506Z,47.36
2018-02-17T16:27:53.899Z,47.67
2018-02-17T16:30:22.246Z,47.05
2018-02-17T16:32:51.376Z,46.97
2018-02-17T16:35:19.782Z,46.92
2018-02-17T16:37:48.118Z,46.86
2018-02-17T16:40:16.448Z,47.29
2018-02-17T16:42:45.043Z,46.78
2018-02-17T16:45:13.504Z,45.51
2018-02-17T16:47:42.042Z,45.72
2018-02-17T16:50:10.398Z,45.79
2018-02-17T16:52:38.694Z,45.84
2018-02-17T16:55:07.014Z,45.70
2018-02-17T16:57:36.141Z,46.51
2018-02-17T17:00:04.503Z,46.80
2018-02-17T17:02:32.878Z,46.34
2018-02-17T17:05:01.559Z,46.80
2018-02-17T17:07:29.869Z,46.90
2018-02-17T17:09:58.221Z,47.61
2018-02-17T17:12:26.613Z,47.35
2018-02-17T17:14:54.956Z,46.66
2018-02-17T17:17:24.119Z,46.44
2018-02-17T17:19:52.499Z,46.70
2018-02-17T17:22:20.840Z,46.98
2018-02-17T17:24:49.184Z,47.05
2018-02-17T17:27:17.829Z,47.65
2018-02-17T17:29:46.185Z,47.18
2018-02-17T17:32:14.634Z,46.88
2018-02-17T17:34:43.002Z,47.45
2018-02-17T17:37:11.370Z,47.47
2018-02-17T17:39:39.737Z,47.49
2018-02-17T17:42:08.117Z,47.52
2018-02-17T17:44:36.488Z,46.94
2018-02-17T17:47:04.842Z,45.97
2018-02-17T17:49:33.572Z,45.71
2018-02-17T17:52:01.957Z,46.32
2018-02-17T17:54:30.410Z,45.96
2018-02-17T17:56:58.765Z,45.87
2018-02-17T17:59:27.108Z,45.73
2018-02-17T18:01:55.464Z,45.52
2018-02-17T18:04:23.869Z,45.14
2018-02-17T18:06:52.992Z,45.01
2018-02-17T18:09:21.305Z,45.33
2018-02-17T18:11:49.922Z,45.18
2018-02-17T18:14:18.282Z,45.72
2018-02-17T18:16:46.740Z,45.87
2018-02-17T18:19:15.120Z,46.07
2018-02-17T18:21:43.484Z,45.65
2018-02-17T18:24:11.850Z,45.00
2018-02-17T18:26:40.970Z,46.17
2018-02-17T18:29:09.305Z,45.79
2018-02-17T18:31:37.647Z,46.06
2018-02-17T18:34:06.202Z,46.59
2018-02-17T18:36:34.537Z,46.60
2018-02-17T18:39:03.084Z,45.78
2018-02-17T18:41:31.437Z,45.50
2018-02-17T18:43:59.776Z,45.53
2018-02-17T18:46:28.125Z,45.45
2018-02-17T18:48:56.565Z,45.21
2018-02-17T18:51:25.686Z,46.20
2018-02-17T18:53:54.017Z,46.54
2018-02-17T18:56:23.666Z,46.86
2018-02-17T18:58:52.296Z,46.17
2018-02-17T19:01:20.720Z,46.38
2018-02-17T19:03:49.122Z,47.79
2018-02-17T19:06:17.496Z,48.14
2018-02-17T19:08:45.833Z,47.76
2018-02-17T19:11:14.256Z,48.31
2018-02-17T19:13:42.637Z,48.45
2018-02-17T19:16:11.006Z,48.19
2018-02-17T19:18:39.667Z,47.17
2018-02-17T19:21:08.782Z,47.55
2018-02-17T19:23:37.116Z,48.67
2018-02-17T19:26:05.513Z,49.67
2018-02-17T19:28:33.875Z,50.07
2018-02-17T19:31:02.202Z,48.84
2018-02-17T19:33:30.544Z,49.78
2018-02-17T19:35:58.889Z,49.93
2018-02-17T19:38:27.234Z,48.50
2018-02-17T19:40:55.602Z,49.62
2018-02-17T19:43:24.710Z,49.88
2018-02-17T19:45:53.806Z,49.99
2018-02-17T19:48:22.176Z,49.94
2018-02-17T19:50:51.308Z,50.92
2018-02-17T19:53:24.938Z,50.68
2018-02-17T19:55:53.725Z,50.54
2018-02-17T19:58:22.060Z,50.15
2018-02-17T20:00:50.458Z,49.86
2018-02-17T20:03:18.917Z,50.76
2018-02-17T20:05:47.284Z,50.59
2018-02-17T20:08:15.673Z,51.28
2018-02-17T20:10:44.028Z,50.72
2018-02-17T20:13:12.405Z,51.32
2018-02-17T20:15:40.841Z,50.72
2018-02-17T20:18:09.200Z,49.75
2018-02-17T20:20:37.608Z,50.51
2018-02-17T20:23:06.113Z,50.95
2018-02-17T20:25:34.505Z,51.53
2018-02-17T20:28:02.913Z,51.78
2018-02-17T20:30:31.314Z,51.82
2018-02-17T20:32:59.715Z,52.57
2018-02-17T20:35:28.115Z,53.21
2018-02-17T20:37:56.559Z,52.35
2018-02-17T20:40:24.944Z,52.67
2018-02-17T20:42:53.372Z,53.28
2018-02-17T20:45:22.638Z,52.51
2018-02-17T20:47:50.957Z,51.18
2018-02-17T20:50:20.456Z,48.25
2018-02-17T20:52:49.625Z,48.56
2018-02-17T20:55:17.963Z,49.63
2018-02-17T20:57:46.314Z,52.82
2018-02-17T21:00:14.697Z,53.97
2018-02-17T21:02:43.090Z,53.64
2018-02-17T21:05:11.470Z,54.25
2018-02-17T21:07:40.189Z,53.09
2018-02-17T21:10:08.601Z,53.58
2018-02-17T21:12:37.016Z,54.40
2018-02-17T21:15:05.376Z,54.51
2018-02-17T21:17:33.715Z,54.28
2018-02-17T21:20:02.080Z,53.62
2018-02-17T21:22:30.511Z,53.29
2018-02-17T21:24:58.869Z,54.29
2018-02-17T21:27:27.220Z,53.93
2018-02-17T21:29:55.670Z,53.70
2018-02-17T21:32:24.013Z,54.04
2018-02-17T21:34:52.385Z,54.66
2018-02-17T21:37:20.773Z,53.44
2018-02-17T21:39:49.133Z,53.79
2018-02-17T21:42:17.451Z,53.65
2018-02-17T21:44:46.595Z,52.52
2018-02-17T21:47:14.934Z,53.73
2018-02-17T21:49:43.272Z,55.76
2018-02-17T21:52:12.228Z,55.70
2018-02-17T21:54:41.273Z,55.97
2018-02-17T21:57:09.653Z,56.41
2018-02-17T21:59:38.017Z,56.66
2018-02-17T22:02:06.419Z,55.49
2018-02-17T22:04:34.786Z,55.66
2018-02-17T22:07:03.176Z,55.98
2018-02-17T22:09:31.553Z,56.54
2018-02-17T22:11:59.935Z,57.19
2018-02-17T22:14:28.415Z,57.06
2018-02-17T22:16:56.769Z,57.38
2018-02-17T22:19:25.105Z,56.91
2018-02-17T22:21:53.505Z,57.42
2018-02-17T22:24:21.826Z,56.88
2018-02-17T22:26:50.141Z,57.30
2018-02-17T22:29:18.488Z,57.23
2018-02-17T22:31:46.858Z,57.49
2018-02-17T22:34:15.209Z,57.75
2018-02-17T22:36:43.721Z,57.03
2018-02-17T22:39:12.077Z,57.63
2018-02-17T22:41:40.421Z,57.48
2018-02-17T22:44:08.798Z,57.35
2018-02-17T22:46:37.135Z,58.48
2018-02-17T22:49:05.454Z,58.92
2018-02-17T22:51:33.819Z,58.50
2018-02-17T22:54:02.922Z,58.23
2018-02-17T22:56:32.049Z,57.96
2018-02-17T22:59:01.026Z,57.85
2018-02-17T23:01:29.348Z,58.02
2018-02-17T23:03:57.696Z,58.82
2018-02-17T23:06:26.067Z,59.16
2018-02-17T23:08:54.413Z,59.16
2018-02-17T23:11:23.541Z,59.47
2018-02-17T23:13:52.247Z,58.50
2018-02-17T23:16:20.609Z,58.15
2018-02-17T23:18:48.942Z,58.63
2018-02-17T23:21:17.444Z,58.38
2018-02-17T23:23:46.555Z,58.42
2018-02-17T23:26:14.982Z,59.48
2018-02-17T23:28:44.223Z,58.34
2018-02-17T23:31:12.598Z,58.87
2018-02-17T23:33:40.995Z,58.86
2018-02-17T23:36:10.259Z,59.16
2018-02-17T23:38:38.678Z,58.86
2018-02-17T23:41:07.808Z,58.83
2018-02-17T23:43:36.351Z,57.84
2018-02-17T23:46:04.679Z,58.58
2018-02-17T23:48:33.072Z,59.48
2018-02-17T23:51:01.417Z,60.19
2018-02-17T23:53:29.756Z,60.32
2018-02-17T23:55:58.858Z,60.19
2018-02-17T23:58:28.073Z,60.14
